N404UG PAEN-PAWD
Flight info
| Callsign | N404UG |
|---|---|
| Flight time | N/A |
| Altitude | 7500 |
| Route | VFR DCT PANC DCT PAWD |
| Aircraft | AT8T/L-VGD/C |
Departure
| Time | 2026-04-19 03:28 |
|---|---|
| Airport | Kenai Municipal Airport (PAEN) |
Arrival
| Time | N/A |
|---|---|
| Airport | Seward Airport (PAWD) |
| Time | Latitude | Longitude | Altitude | Speed | Heading |
|---|---|---|---|---|---|
| 2026-04-19 03:11 | 60.56333 | -151.24946 | 95 ft | 0 kts | 137° |
| 2026-04-19 03:13 | 60.56333 | -151.24947 | 95 ft | 0 kts | 137° |
| 2026-04-19 03:14 | 60.56334 | -151.24947 | 95 ft | 0 kts | 137° |
| 2026-04-19 03:18 | 60.56334 | -151.24948 | 95 ft | 0 kts | 137° |
| 2026-04-19 03:21 | 60.56327 | -151.24934 | 98 ft | 5 kts | 126° |
| 2026-04-19 03:21 | 60.56346 | -151.24841 | 95 ft | 14 kts | 347° |
| 2026-04-19 03:21 | 60.56398 | -151.25032 | 95 ft | 19 kts | 290° |
| 2026-04-19 03:21 | 60.56385 | -151.25137 | 94 ft | 2 kts | 226° |
| 2026-04-19 03:22 | 60.56360 | -151.25187 | 96 ft | 8 kts | 223° |
| 2026-04-19 03:22 | 60.56324 | -151.25287 | 94 ft | 11 kts | 289° |
| 2026-04-19 03:22 | 60.56392 | -151.25342 | 94 ft | 15 kts | 31° |
| 2026-04-19 03:22 | 60.56498 | -151.25209 | 95 ft | 21 kts | 33° |
| 2026-04-19 03:23 | 60.56635 | -151.25049 | 95 ft | 25 kts | 28° |
| 2026-04-19 03:23 | 60.56802 | -151.24844 | 96 ft | 31 kts | 34° |
| 2026-04-19 03:23 | 60.57002 | -151.24601 | 97 ft | 36 kts | 30° |
| 2026-04-19 03:23 | 60.57229 | -151.24333 | 98 ft | 39 kts | 34° |
| 2026-04-19 03:24 | 60.57334 | -151.24195 | 99 ft | 8 kts | 32° |
| 2026-04-19 03:24 | 60.57357 | -151.24165 | 100 ft | 4 kts | 32° |
| 2026-04-19 03:24 | 60.57368 | -151.24150 | 100 ft | 0 kts | 33° |
| 2026-04-19 03:26 | 60.57374 | -151.24143 | 100 ft | 5 kts | 29° |
| 2026-04-19 03:26 | 60.57440 | -151.24171 | 100 ft | 16 kts | 321° |
| 2026-04-19 03:26 | 60.57486 | -151.24287 | 99 ft | 15 kts | 303° |
| 2026-04-19 03:27 | 60.57413 | -151.24498 | 99 ft | 1 kts | 210° |
| 2026-04-19 03:27 | 60.57300 | -151.24629 | 98 ft | 41 kts | 210° |
| 2026-04-19 03:27 | 60.57081 | -151.24891 | 105 ft | 65 kts | 206° |
| 2026-04-19 03:27 | 60.56539 | -151.25480 | 359 ft | 67 kts | 201° |
| 2026-04-19 03:28 | 60.56210 | -151.25768 | 395 ft | 84 kts | 208° |
| 2026-04-19 03:28 | 60.55738 | -151.26275 | 814 ft | 71 kts | 194° |
| 2026-04-19 03:28 | 60.55162 | -151.26125 | 844 ft | 100 kts | 175° |
| 2026-04-19 03:28 | 60.54670 | -151.26915 | 1270 ft | 81 kts | 235° |
| 2026-04-19 03:29 | 60.54521 | -151.28129 | 1365 ft | 107 kts | 270° |
| 2026-04-19 03:29 | 60.54898 | -151.29452 | 1536 ft | 125 kts | 308° |
| 2026-04-19 03:29 | 60.55616 | -151.30506 | 1807 ft | 125 kts | 326° |
| 2026-04-19 03:29 | 60.56456 | -151.31370 | 1833 ft | 144 kts | 328° |
| 2026-04-19 03:30 | 60.57357 | -151.32101 | 2187 ft | 135 kts | 332° |
| 2026-04-19 03:30 | 60.58345 | -151.32127 | 2200 ft | 158 kts | 21° |
| 2026-04-19 03:30 | 60.59181 | -151.30859 | 2600 ft | 139 kts | 44° |
| 2026-04-19 03:30 | 60.59923 | -151.29397 | 2552 ft | 157 kts | 47° |
| 2026-04-19 03:31 | 60.60684 | -151.27790 | 2485 ft | 166 kts | 50° |
| 2026-04-19 03:31 | 60.61425 | -151.26051 | 2500 ft | 160 kts | 53° |
| 2026-04-19 03:31 | 60.62157 | -151.24328 | 2505 ft | 158 kts | 47° |
| 2026-04-19 03:31 | 60.62945 | -151.22832 | 2554 ft | 156 kts | 46° |
| 2026-04-19 03:32 | 60.63473 | -151.21850 | 2528 ft | 157 kts | 44° |
| 2026-04-19 03:33 | 60.64156 | -151.20620 | 2571 ft | 155 kts | 43° |
| 2026-04-19 03:33 | 60.64984 | -151.19196 | 2545 ft | 159 kts | 41° |
| 2026-04-19 03:33 | 60.65816 | -151.17720 | 2590 ft | 156 kts | 44° |
| 2026-04-19 03:33 | 60.66593 | -151.16253 | 2653 ft | 155 kts | 46° |
| 2026-04-19 03:34 | 60.67419 | -151.14724 | 2625 ft | 159 kts | 39° |
| 2026-04-19 03:34 | 60.68203 | -151.13163 | 2584 ft | 160 kts | 49° |
| 2026-04-19 03:34 | 60.68928 | -151.11484 | 2686 ft | 155 kts | 51° |
| 2026-04-19 03:34 | 60.69713 | -151.09969 | 2681 ft | 157 kts | 45° |
| 2026-04-19 03:35 | 60.70468 | -151.08351 | 2651 ft | 158 kts | 50° |
| 2026-04-19 03:35 | 60.71205 | -151.06729 | 2756 ft | 154 kts | 49° |
| 2026-04-19 03:35 | 60.71966 | -151.05133 | 2664 ft | 160 kts | 47° |
| 2026-04-19 03:35 | 60.72759 | -151.03514 | 2670 ft | 158 kts | 47° |
| 2026-04-19 03:36 | 60.73513 | -151.01911 | 2679 ft | 157 kts | 49° |
| 2026-04-19 03:36 | 60.74276 | -151.00247 | 2547 ft | 164 kts | 53° |
| 2026-04-19 03:36 | 60.74968 | -150.98461 | 2626 ft | 155 kts | 61° |
| 2026-04-19 03:36 | 60.75481 | -150.96528 | 2633 ft | 154 kts | 64° |
| 2026-04-19 03:37 | 60.76142 | -150.94733 | 2530 ft | 161 kts | 56° |
| 2026-04-19 03:37 | 60.76582 | -150.93505 | 2504 ft | 160 kts | 57° |
| 2026-04-19 03:37 | 60.76623 | -150.93385 | 2508 ft | 160 kts | 58° |
| 2026-04-19 03:37 | 60.77130 | -150.91583 | 2528 ft | 156 kts | 71° |
| 2026-04-19 03:38 | 60.77636 | -150.89568 | 2452 ft | 159 kts | 55° |
| 2026-04-19 03:38 | 60.78351 | -150.87902 | 2457 ft | 158 kts | 52° |
| 2026-04-19 03:38 | 60.79021 | -150.86127 | 2476 ft | 154 kts | 56° |
| 2026-04-19 03:38 | 60.79636 | -150.84323 | 2448 ft | 157 kts | 62° |
| 2026-04-19 03:39 | 60.80296 | -150.82533 | 2420 ft | 157 kts | 50° |
| 2026-04-19 03:39 | 60.81026 | -150.80929 | 2487 ft | 153 kts | 49° |
| 2026-04-19 03:39 | 60.81764 | -150.79319 | 2454 ft | 157 kts | 49° |
| 2026-04-19 03:39 | 60.82497 | -150.77737 | 2512 ft | 153 kts | 49° |
| 2026-04-19 03:40 | 60.83243 | -150.76145 | 2469 ft | 157 kts | 52° |
| 2026-04-19 03:40 | 60.83974 | -150.74497 | 2517 ft | 155 kts | 49° |
| 2026-04-19 03:40 | 60.84715 | -150.72867 | 2508 ft | 157 kts | 50° |
| 2026-04-19 03:40 | 60.85442 | -150.71225 | 2569 ft | 155 kts | 49° |
| 2026-04-19 03:41 | 60.86175 | -150.69587 | 2561 ft | 157 kts | 50° |
| 2026-04-19 03:41 | 60.86928 | -150.67970 | 2575 ft | 157 kts | 47° |
| 2026-04-19 03:41 | 60.87728 | -150.66450 | 2584 ft | 157 kts | 44° |
| 2026-04-19 03:41 | 60.88497 | -150.64866 | 2597 ft | 155 kts | 51° |
| 2026-04-19 03:42 | 60.89243 | -150.63256 | 2611 ft | 156 kts | 48° |
| 2026-04-19 03:42 | 60.89982 | -150.61629 | 2576 ft | 157 kts | 46° |
| 2026-04-19 03:42 | 60.90779 | -150.60133 | 2586 ft | 156 kts | 44° |
| 2026-04-19 03:42 | 60.91602 | -150.58626 | 2529 ft | 159 kts | 43° |